createdAt,value
2018-04-26T00:01:02.153Z,99.84
2018-04-26T00:03:29.819Z,100.00
2018-04-26T00:05:57.502Z,100.00
2018-04-26T00:08:25.068Z,100.00
2018-04-26T00:10:54.426Z,100.00
2018-04-26T00:13:22.873Z,100.00
2018-04-26T00:15:50.455Z,100.00
2018-04-26T00:18:18.016Z,100.00
2018-04-26T00:20:45.604Z,100.00
2018-04-26T00:23:13.179Z,100.00
2018-04-26T00:25:40.725Z,100.00
2018-04-26T00:28:08.524Z,100.00
2018-04-26T00:30:36.077Z,100.00
2018-04-26T00:33:03.634Z,100.00
2018-04-26T00:35:31.538Z,100.00
2018-04-26T00:37:59.138Z,100.00
2018-04-26T00:40:27.036Z,100.00
2018-04-26T00:42:54.832Z,100.00
2018-04-26T00:45:22.506Z,100.00
2018-04-26T00:47:50.210Z,100.00
2018-04-26T00:50:17.775Z,100.00
2018-04-26T00:52:45.548Z,100.00
2018-04-26T00:55:13.308Z,99.83
2018-04-26T00:57:40.905Z,100.00
2018-04-26T01:00:08.476Z,99.99
2018-04-26T01:02:36.110Z,99.50
2018-04-26T01:05:03.673Z,100.00
2018-04-26T01:07:31.236Z,98.98
2018-04-26T01:09:58.773Z,99.11
2018-04-26T01:12:26.333Z,99.64
2018-04-26T01:14:53.917Z,99.31
2018-04-26T01:17:21.478Z,99.19
2018-04-26T01:19:49.068Z,100.00
2018-04-26T01:22:16.868Z,100.00
2018-04-26T01:24:44.451Z,100.00
2018-04-26T01:27:12.007Z,100.00
2018-04-26T01:29:39.594Z,100.00
2018-04-26T01:32:07.175Z,100.00
2018-04-26T01:34:34.755Z,100.00
2018-04-26T01:37:14.064Z,99.18
2018-04-26T01:39:41.604Z,97.76
2018-04-26T01:42:09.198Z,97.22
2018-04-26T01:44:36.771Z,97.66
2018-04-26T01:47:04.329Z,95.88
2018-04-26T01:49:31.886Z,95.35
2018-04-26T01:51:59.490Z,94.31
2018-04-26T01:54:27.216Z,94.91
2018-04-26T01:56:54.852Z,94.92
2018-04-26T01:59:22.618Z,94.69
2018-04-26T02:01:50.177Z,94.99
2018-04-26T02:04:17.729Z,93.54
2018-04-26T02:06:45.299Z,93.73
2018-04-26T02:09:12.868Z,94.42
2018-04-26T02:11:40.475Z,93.66
2018-04-26T02:14:08.056Z,94.22
2018-04-26T02:16:35.635Z,93.39
2018-04-26T02:19:03.219Z,96.22
2018-04-26T02:21:30.811Z,93.41
2018-04-26T02:23:58.366Z,93.78
2018-04-26T02:26:25.948Z,92.81
2018-04-26T02:28:53.509Z,94.44
2018-04-26T02:31:21.071Z,93.55
2018-04-26T02:33:48.638Z,93.99
2018-04-26T02:36:16.254Z,93.14
2018-04-26T02:38:43.817Z,93.27
2018-04-26T02:41:11.376Z,93.08
2018-04-26T02:43:38.929Z,93.40
2018-04-26T02:46:06.512Z,94.39
2018-04-26T02:48:34.049Z,93.19
2018-04-26T02:51:01.606Z,92.67
2018-04-26T02:53:29.158Z,93.29
2018-04-26T02:55:56.743Z,92.64
2018-04-26T02:58:24.391Z,91.71
2018-04-26T03:00:51.974Z,92.12
2018-04-26T03:03:19.532Z,92.66
2018-04-26T03:05:47.125Z,91.82
2018-04-26T03:08:14.764Z,91.78
2018-04-26T03:10:42.277Z,91.52
2018-04-26T03:13:09.839Z,91.29
2018-04-26T03:15:37.406Z,91.84
2018-04-26T03:18:04.989Z,92.39
2018-04-26T03:20:32.553Z,92.91
2018-04-26T03:23:00.145Z,91.44
2018-04-26T03:25:27.705Z,91.64
2018-04-26T03:27:55.267Z,91.57
2018-04-26T03:30:22.818Z,89.27
2018-04-26T03:32:50.383Z,90.09
2018-04-26T03:35:18.111Z,90.88
2018-04-26T03:37:45.669Z,91.30
2018-04-26T03:40:13.244Z,90.47
2018-04-26T03:42:40.799Z,90.51
2018-04-26T03:45:08.378Z,92.73
2018-04-26T03:47:35.977Z,91.29
2018-04-26T03:50:03.738Z,90.67
2018-04-26T03:52:31.332Z,90.58
2018-04-26T03:54:58.986Z,90.60
2018-04-26T03:57:26.617Z,90.32
2018-04-26T04:00:05.961Z,91.01
2018-04-26T04:02:45.319Z,90.60
2018-04-26T04:08:17.410Z,91.19
2018-04-26T04:10:44.984Z,91.04
2018-04-26T04:13:12.522Z,91.84
2018-04-26T04:15:40.119Z,91.39
2018-04-26T04:18:07.681Z,91.23
2018-04-26T04:20:35.262Z,91.84
2018-04-26T04:23:02.793Z,91.71
2018-04-26T04:25:31.144Z,92.72
2018-04-26T04:27:58.708Z,91.18
2018-04-26T04:30:26.275Z,91.16
2018-04-26T04:32:53.852Z,91.31
2018-04-26T04:35:21.499Z,91.88
2018-04-26T04:37:49.011Z,91.55
2018-04-26T04:40:16.622Z,91.78
2018-04-26T04:42:44.165Z,91.83
2018-04-26T04:45:11.750Z,90.39
2018-04-26T04:47:39.330Z,91.06
2018-04-26T04:50:06.903Z,90.55
2018-04-26T04:52:34.561Z,91.93
2018-04-26T04:55:02.139Z,91.08
2018-04-26T04:57:29.673Z,91.14
2018-04-26T04:59:57.201Z,89.24
2018-04-26T05:02:24.758Z,88.67
2018-04-26T05:04:52.320Z,89.40
2018-04-26T05:07:19.949Z,89.41
2018-04-26T05:09:47.442Z,89.06
2018-04-26T05:12:15.067Z,89.80
2018-04-26T05:14:42.627Z,88.15
2018-04-26T05:17:10.180Z,88.77
2018-04-26T05:19:37.757Z,91.10
2018-04-26T05:22:05.338Z,92.34
2018-04-26T05:24:32.924Z,93.38
2018-04-26T05:27:00.490Z,93.88
2018-04-26T05:29:28.050Z,94.59
2018-04-26T05:31:55.649Z,93.75
2018-04-26T05:34:23.207Z,94.79
2018-04-26T05:36:50.901Z,94.59
2018-04-26T05:39:18.464Z,96.11
2018-04-26T05:41:46.019Z,96.35
2018-04-26T05:44:13.592Z,97.03
2018-04-26T05:46:41.235Z,96.61
2018-04-26T05:49:08.806Z,96.96
2018-04-26T05:51:36.379Z,98.08
2018-04-26T05:54:03.930Z,97.84
2018-04-26T05:56:31.504Z,97.89
2018-04-26T05:58:59.070Z,98.61
2018-04-26T06:01:26.922Z,99.40
2018-04-26T06:03:54.548Z,99.83
2018-04-26T06:06:22.065Z,99.52
2018-04-26T06:08:49.650Z,100.00
2018-04-26T06:11:17.248Z,99.50
2018-04-26T06:13:44.825Z,100.00
2018-04-26T06:16:12.387Z,100.00
2018-04-26T06:18:40.047Z,100.00
2018-04-26T06:21:07.817Z,100.00
2018-04-26T06:23:35.392Z,100.00
2018-04-26T06:26:02.937Z,100.00
2018-04-26T06:28:30.482Z,100.00
2018-04-26T06:30:58.048Z,100.00
2018-04-26T06:33:25.798Z,100.00
2018-04-26T06:35:53.356Z,100.00
2018-04-26T06:38:20.915Z,99.83
2018-04-26T06:40:48.486Z,100.00
2018-04-26T06:43:16.225Z,100.00
2018-04-26T06:45:43.776Z,100.00
2018-04-26T06:48:11.381Z,99.92
2018-04-26T06:50:38.914Z,100.00
2018-04-26T06:53:06.478Z,100.00
2018-04-26T06:55:34.044Z,100.00
2018-04-26T06:58:01.596Z,100.00
2018-04-26T07:00:29.367Z,99.07
2018-04-26T07:02:57.057Z,99.55
2018-04-26T07:05:24.594Z,97.35
2018-04-26T07:07:52.135Z,98.30
2018-04-26T07:10:19.684Z,98.17
2018-04-26T07:12:47.216Z,97.44
2018-04-26T07:15:14.756Z,98.23
2018-04-26T07:17:42.368Z,97.39
2018-04-26T07:20:09.931Z,98.42
2018-04-26T07:25:04.299Z,98.41
2018-04-26T07:27:31.845Z,97.77
2018-04-26T07:29:59.423Z,98.12
2018-04-26T07:32:26.981Z,98.95
2018-04-26T07:34:54.580Z,99.30
2018-04-26T07:37:22.132Z,99.00
2018-04-26T07:39:49.694Z,98.78
2018-04-26T07:42:17.326Z,99.04
2018-04-26T07:44:44.912Z,99.54
2018-04-26T07:47:12.485Z,99.44
2018-04-26T07:49:40.052Z,100.00
2018-04-26T07:52:07.581Z,99.41
2018-04-26T07:54:36.212Z,98.39
2018-04-26T07:57:03.772Z,98.43
2018-04-26T07:59:31.345Z,98.86
2018-04-26T08:01:58.899Z,97.57
2018-04-26T08:04:26.445Z,95.74
2018-04-26T08:06:54.003Z,95.30
2018-04-26T08:09:21.563Z,95.99
2018-04-26T08:11:49.211Z,96.20
2018-04-26T08:14:16.717Z,95.77
2018-04-26T08:16:44.276Z,95.30
2018-04-26T08:19:11.851Z,96.66
2018-04-26T08:21:39.760Z,95.86
2018-04-26T08:24:07.535Z,91.04
2018-04-26T08:26:35.100Z,92.69
2018-04-26T08:29:02.642Z,93.50
2018-04-26T08:31:30.218Z,93.46
2018-04-26T08:33:57.752Z,92.73
2018-04-26T08:36:25.329Z,94.16
2018-04-26T08:38:52.887Z,91.69
2018-04-26T08:41:20.463Z,92.57
2018-04-26T08:43:48.088Z,89.63
2018-04-26T08:46:15.638Z,91.78
2018-04-26T08:48:43.170Z,91.40
2018-04-26T08:51:10.738Z,90.99
2018-04-26T08:53:38.288Z,88.18
2018-04-26T08:56:05.852Z,90.77
2018-04-26T08:58:33.417Z,89.99
2018-04-26T09:01:00.971Z,89.65
2018-04-26T09:03:28.660Z,86.68
2018-04-26T09:05:56.259Z,87.41
2018-04-26T09:08:23.820Z,84.90
2018-04-26T09:10:51.388Z,87.53
2018-04-26T09:13:19.080Z,88.85
2018-04-26T09:15:46.701Z,86.72
2018-04-26T09:18:14.571Z,89.95
2018-04-26T09:20:42.155Z,87.66
2018-04-26T09:23:09.721Z,87.88
2018-04-26T09:25:37.274Z,85.83
2018-04-26T09:28:05.058Z,87.16
2018-04-26T09:30:32.661Z,90.47
2018-04-26T09:33:00.308Z,90.72
2018-04-26T09:35:27.876Z,92.66
2018-04-26T09:37:55.452Z,93.88
2018-04-26T09:40:22.989Z,94.84
2018-04-26T09:42:50.529Z,95.87
2018-04-26T09:45:18.096Z,97.48
2018-04-26T09:47:45.959Z,98.79
2018-04-26T09:50:13.690Z,99.30
2018-04-26T09:52:41.265Z,100.00
2018-04-26T09:55:08.807Z,100.00
2018-04-26T09:57:36.556Z,100.00
2018-04-26T10:00:04.125Z,100.00
2018-04-26T10:02:31.690Z,100.00
2018-04-26T10:04:59.236Z,100.00
2018-04-26T10:07:26.842Z,100.00
2018-04-26T10:09:54.397Z,100.00
2018-04-26T10:12:21.927Z,100.00
2018-04-26T10:14:49.469Z,100.00
2018-04-26T10:17:17.030Z,100.00
2018-04-26T10:19:44.566Z,100.00
2018-04-26T10:22:12.090Z,100.00
2018-04-26T10:24:39.644Z,100.00
2018-04-26T10:27:07.450Z,100.00
2018-04-26T10:29:34.995Z,100.00
2018-04-26T10:32:02.561Z,100.00
2018-04-26T10:34:30.130Z,100.00
2018-04-26T10:36:57.691Z,100.00
2018-04-26T10:39:25.273Z,100.00
2018-04-26T10:41:52.827Z,99.22
2018-04-26T10:44:20.390Z,98.29
2018-04-26T10:46:47.967Z,96.66
2018-04-26T10:49:15.511Z,98.16
2018-04-26T10:51:43.063Z,98.80
2018-04-26T10:54:10.605Z,97.61
2018-04-26T10:56:38.167Z,98.95
2018-04-26T10:59:05.714Z,98.44
2018-04-26T11:01:33.278Z,100.00
2018-04-26T11:04:00.934Z,100.00
2018-04-26T11:06:28.498Z,100.00
2018-04-26T11:08:56.129Z,99.62
2018-04-26T11:11:23.835Z,99.96
2018-04-26T11:13:51.401Z,98.70
2018-04-26T11:16:18.995Z,100.00
2018-04-26T11:18:46.545Z,100.00
2018-04-26T11:21:14.145Z,100.00
2018-04-26T11:23:41.665Z,100.00
2018-04-26T11:26:09.232Z,97.12
2018-04-26T11:28:36.796Z,96.32
2018-04-26T11:31:04.558Z,98.06
2018-04-26T11:33:32.086Z,96.40
2018-04-26T11:35:59.948Z,96.18
2018-04-26T11:38:27.538Z,93.93
2018-04-26T11:40:55.080Z,92.51
2018-04-26T11:43:22.618Z,91.91
2018-04-26T11:45:50.349Z,92.13
2018-04-26T11:48:18.046Z,91.70
2018-04-26T11:50:45.645Z,88.14
2018-04-26T11:53:13.226Z,89.57
2018-04-26T11:55:40.796Z,86.76
2018-04-26T11:58:08.392Z,86.71
2018-04-26T12:00:36.067Z,88.29
2018-04-26T12:03:03.649Z,86.16
2018-04-26T12:05:31.219Z,85.41
2018-04-26T12:07:58.775Z,83.14
2018-04-26T12:10:26.317Z,83.30
2018-04-26T12:12:53.865Z,83.58
2018-04-26T12:15:21.400Z,82.49
2018-04-26T12:17:49.016Z,81.83
2018-04-26T12:20:16.954Z,84.16
2018-04-26T12:22:44.508Z,81.71
2018-04-26T12:25:12.244Z,79.92
2018-04-26T12:27:39.958Z,76.56
2018-04-26T12:30:07.512Z,76.02
2018-04-26T12:32:35.237Z,77.16
2018-04-26T12:35:02.809Z,77.20
2018-04-26T12:37:30.456Z,74.80
2018-04-26T12:39:58.051Z,77.50
2018-04-26T12:42:25.723Z,73.29
2018-04-26T12:44:53.231Z,75.48
2018-04-26T12:47:20.775Z,73.33
2018-04-26T12:49:48.592Z,76.03
2018-04-26T12:52:16.148Z,74.90
2018-04-26T12:54:43.705Z,81.44
2018-04-26T12:57:11.264Z,83.24
2018-04-26T12:59:38.802Z,85.87
2018-04-26T13:02:06.364Z,83.97
2018-04-26T13:04:34.117Z,84.70
2018-04-26T13:07:01.681Z,84.77
2018-04-26T13:09:29.794Z,83.36
2018-04-26T13:11:57.716Z,85.07
2018-04-26T13:14:25.645Z,85.83
2018-04-26T13:16:53.719Z,82.56
2018-04-26T13:19:21.505Z,81.60
2018-04-26T13:21:49.064Z,82.81
2018-04-26T13:24:16.634Z,83.70
2018-04-26T13:26:44.405Z,83.99
2018-04-26T13:29:12.027Z,85.43
2018-04-26T13:31:39.583Z,87.22
2018-04-26T13:34:07.147Z,89.55
2018-04-26T13:36:34.697Z,88.24
2018-04-26T13:39:02.237Z,88.32
2018-04-26T13:41:29.787Z,88.37
2018-04-26T13:43:57.371Z,88.05
2018-04-26T13:46:24.966Z,87.43
2018-04-26T13:48:52.490Z,89.06
2018-04-26T13:51:20.027Z,87.57
2018-04-26T13:53:47.578Z,87.21
2018-04-26T13:56:15.185Z,88.60
2018-04-26T13:58:42.789Z,86.16
2018-04-26T14:01:10.322Z,85.43
2018-04-26T14:03:37.855Z,86.61
2018-04-26T14:06:05.644Z,84.30
2018-04-26T14:08:33.177Z,85.46
2018-04-26T14:11:00.864Z,83.09
2018-04-26T14:13:28.602Z,83.15
2018-04-26T14:15:56.156Z,83.05
2018-04-26T14:18:23.889Z,82.43
2018-04-26T14:20:51.442Z,81.68
2018-04-26T14:23:19.064Z,81.10
2018-04-26T14:25:46.589Z,83.37
2018-04-26T14:28:14.260Z,81.59
2018-04-26T14:30:41.847Z,78.07
2018-04-26T14:33:09.412Z,78.29
2018-04-26T14:35:37.000Z,74.81
2018-04-26T14:38:04.548Z,74.87
2018-04-26T14:40:32.087Z,72.17
2018-04-26T14:42:59.683Z,72.88
2018-04-26T14:45:27.279Z,72.93
2018-04-26T14:47:54.834Z,73.62
2018-04-26T14:50:22.375Z,76.24
2018-04-26T14:52:49.923Z,77.13
2018-04-26T14:55:17.477Z,77.16
2018-04-26T14:57:45.069Z,77.31
2018-04-26T15:00:12.633Z,77.39
2018-04-26T15:02:40.209Z,76.98
2018-04-26T15:05:07.780Z,77.41
2018-04-26T15:07:35.347Z,78.08
2018-04-26T15:10:02.935Z,79.01
2018-04-26T15:12:30.536Z,80.33
2018-04-26T15:14:58.155Z,79.70
2018-04-26T15:17:25.714Z,80.39
2018-04-26T15:19:53.351Z,79.72
2018-04-26T15:22:20.895Z,79.13
2018-04-26T15:24:48.454Z,79.84
2018-04-26T15:27:15.990Z,79.41
2018-04-26T15:29:43.538Z,78.76
2018-04-26T15:32:11.098Z,79.04
2018-04-26T15:34:38.638Z,79.32
2018-04-26T15:37:06.213Z,78.01
2018-04-26T15:39:33.772Z,78.28
2018-04-26T15:42:01.305Z,77.76
2018-04-26T15:44:28.865Z,77.99
2018-04-26T15:46:56.418Z,78.48
2018-04-26T15:49:23.982Z,79.11
2018-04-26T15:51:51.590Z,78.48
2018-04-26T15:54:30.815Z,77.76
2018-04-26T15:57:06.334Z,77.93
2018-04-26T15:59:45.577Z,78.32
2018-04-26T16:05:41.947Z,77.51
2018-04-26T16:08:27.041Z,78.03
2018-04-26T16:11:11.916Z,76.75
2018-04-26T16:17:25.401Z,75.56
2018-04-26T16:20:10.265Z,75.11
2018-04-26T16:26:07.128Z,76.01
2018-04-26T16:28:52.154Z,78.17
2018-04-26T16:34:52.060Z,77.21
2018-04-26T16:37:37.364Z,76.99
2018-04-26T16:40:05.707Z,76.46
2018-04-26T16:42:34.021Z,74.86
2018-04-26T16:45:01.578Z,74.46
2018-04-26T16:47:29.129Z,72.96
2018-04-26T16:49:56.689Z,73.44
2018-04-26T16:52:24.246Z,73.77
2018-04-26T16:54:51.820Z,75.37
2018-04-26T16:57:19.710Z,72.57
2018-04-26T16:59:47.268Z,73.36
2018-04-26T17:02:14.838Z,72.89
2018-04-26T17:04:42.444Z,74.41
2018-04-26T17:07:10.024Z,74.51
2018-04-26T17:09:37.746Z,72.68
2018-04-26T17:12:10.633Z,73.35
2018-04-26T17:14:38.171Z,73.00
2018-04-26T17:17:05.928Z,72.67
2018-04-26T17:19:33.744Z,73.55
2018-04-26T17:22:01.301Z,74.89
2018-04-26T17:24:28.865Z,76.10
2018-04-26T17:26:56.443Z,75.34
2018-04-26T17:29:24.007Z,74.75
2018-04-26T17:31:51.598Z,74.11
2018-04-26T17:34:19.204Z,75.32
2018-04-26T17:36:46.763Z,75.27
2018-04-26T17:39:14.315Z,75.82
2018-04-26T17:41:41.877Z,76.13
2018-04-26T17:44:09.447Z,74.48
2018-04-26T17:46:37.001Z,75.23
2018-04-26T17:49:04.550Z,75.47
2018-04-26T17:51:32.117Z,76.98
2018-04-26T17:53:59.673Z,75.87
2018-04-26T17:56:27.228Z,78.00
2018-04-26T17:58:54.761Z,77.33
2018-04-26T18:01:22.316Z,76.27
2018-04-26T18:03:49.893Z,75.40
2018-04-26T18:06:17.462Z,75.49
2018-04-26T18:08:45.257Z,76.63
2018-04-26T18:11:13.266Z,77.67
2018-04-26T18:13:40.824Z,77.77
2018-04-26T18:16:08.377Z,77.49
2018-04-26T18:18:35.923Z,78.99
2018-04-26T18:21:03.466Z,76.62
2018-04-26T18:23:31.231Z,76.68
2018-04-26T18:25:59.026Z,76.94
2018-04-26T18:28:26.579Z,78.66
2018-04-26T18:30:54.793Z,79.01
2018-04-26T18:33:22.358Z,78.37
2018-04-26T18:35:49.967Z,79.02
2018-04-26T18:38:17.549Z,78.42
2018-04-26T18:40:45.168Z,78.00
2018-04-26T18:43:12.736Z,77.94
2018-04-26T18:45:40.305Z,78.39
2018-04-26T18:48:07.847Z,77.28
2018-04-26T18:50:36.230Z,77.68
2018-04-26T18:53:03.798Z,78.79
2018-04-26T18:55:31.348Z,79.14
2018-04-26T18:57:58.912Z,80.42
2018-04-26T19:00:26.710Z,79.03
2018-04-26T19:02:54.339Z,81.59
2018-04-26T19:05:21.924Z,81.61
2018-04-26T19:07:49.504Z,80.99
2018-04-26T19:10:17.065Z,80.21
2018-04-26T19:12:44.634Z,81.88
2018-04-26T19:15:12.196Z,79.96
2018-04-26T19:17:39.761Z,80.70
2018-04-26T19:20:07.321Z,81.65
2018-04-26T19:22:34.901Z,82.62
2018-04-26T19:25:02.484Z,81.22
2018-04-26T19:27:30.672Z,83.16
2018-04-26T19:29:58.441Z,80.94
2018-04-26T19:32:25.993Z,82.49
2018-04-26T19:34:53.549Z,81.65
2018-04-26T19:37:21.112Z,81.27
2018-04-26T19:39:48.665Z,81.83
2018-04-26T19:42:16.231Z,82.50
2018-04-26T19:44:43.791Z,83.37
2018-04-26T19:47:11.367Z,82.60
2018-04-26T19:49:38.956Z,81.77
2018-04-26T19:52:06.501Z,82.05
2018-04-26T19:54:34.071Z,82.09
2018-04-26T19:57:01.624Z,83.04
2018-04-26T19:59:29.242Z,82.51
2018-04-26T20:01:56.821Z,81.93
2018-04-26T20:04:24.398Z,82.13
2018-04-26T20:06:51.953Z,82.27
2018-04-26T20:09:19.505Z,82.68
2018-04-26T20:11:47.035Z,81.96
2018-04-26T20:14:14.569Z,82.02
2018-04-26T20:16:42.128Z,82.12
2018-04-26T20:19:09.689Z,82.55
2018-04-26T20:21:39.099Z,82.32
2018-04-26T20:24:07.529Z,82.25
2018-04-26T20:26:36.726Z,81.75
2018-04-26T20:29:05.046Z,83.91
2018-04-26T20:31:32.690Z,83.49
2018-04-26T20:34:00.912Z,83.10
2018-04-26T20:36:28.540Z,82.59
2018-04-26T20:38:58.321Z,82.50
2018-04-26T20:41:26.027Z,83.45
2018-04-26T20:43:56.543Z,82.44
2018-04-26T20:46:24.357Z,82.67
2018-04-26T20:48:52.634Z,82.39
2018-04-26T20:51:22.371Z,84.12
2018-04-26T20:53:49.952Z,88.90
2018-04-26T20:56:17.507Z,88.61
2018-04-26T20:58:46.255Z,88.36
2018-04-26T21:01:14.695Z,91.19
2018-04-26T21:03:42.401Z,91.11
2018-04-26T21:06:10.178Z,90.89
2018-04-26T21:08:38.130Z,90.64
2018-04-26T21:11:08.482Z,89.18
2018-04-26T21:13:36.240Z,90.23
2018-04-26T21:16:04.320Z,91.06
2018-04-26T21:18:32.188Z,90.42
2018-04-26T21:20:59.968Z,92.04
2018-04-26T21:23:29.048Z,92.03
2018-04-26T21:26:00.630Z,91.98
2018-04-26T21:28:28.855Z,92.44
2018-04-26T21:30:56.556Z,92.13
2018-04-26T21:33:24.588Z,91.54
2018-04-26T21:35:52.786Z,92.27
2018-04-26T21:38:23.550Z,91.90
2018-04-26T21:40:52.415Z,92.23
2018-04-26T21:43:21.419Z,93.02
2018-04-26T21:45:53.082Z,92.74
2018-04-26T21:48:22.065Z,92.64
2018-04-26T21:50:58.248Z,92.05
2018-04-26T21:53:33.211Z,93.51
2018-04-26T21:56:07.011Z,93.70
2018-04-26T21:58:42.157Z,93.32
2018-04-26T22:01:17.089Z,94.06
2018-04-26T22:04:02.846Z,93.67
2018-04-26T22:06:30.574Z,94.01
2018-04-26T22:08:59.175Z,93.96
2018-04-26T22:11:27.349Z,94.13
2018-04-26T22:13:55.117Z,94.85
2018-04-26T22:16:22.826Z,94.13
2018-04-26T22:18:50.677Z,93.86
2018-04-26T22:21:18.715Z,94.31
2018-04-26T22:23:47.149Z,94.38
2018-04-26T22:26:15.483Z,94.04
2018-04-26T22:28:43.247Z,93.68
2018-04-26T22:31:10.952Z,94.78
2018-04-26T22:33:39.079Z,94.23
2018-04-26T22:36:06.861Z,93.61
2018-04-26T22:38:34.707Z,94.53
2018-04-26T22:41:03.000Z,94.23
2018-04-26T22:43:30.969Z,94.55
2018-04-26T22:45:58.904Z,94.13
2018-04-26T22:48:27.112Z,94.94
2018-04-26T22:50:55.076Z,94.46
2018-04-26T22:53:22.953Z,94.66
2018-04-26T22:55:51.123Z,94.76
2018-04-26T22:58:19.604Z,94.30
2018-04-26T23:00:47.629Z,94.15
2018-04-26T23:03:15.271Z,93.69
2018-04-26T23:05:43.101Z,94.89
2018-04-26T23:08:10.865Z,95.30
2018-04-26T23:10:38.742Z,95.68
2018-04-26T23:13:06.462Z,94.99
2018-04-26T23:15:34.203Z,95.51
2018-04-26T23:18:02.230Z,95.67
2018-04-26T23:20:29.990Z,94.76
2018-04-26T23:22:57.604Z,95.35
2018-04-26T23:25:25.421Z,95.98
2018-04-26T23:27:53.340Z,95.96
2018-04-26T23:30:21.303Z,95.19
2018-04-26T23:32:49.436Z,96.34
2018-04-26T23:35:17.293Z,96.19
2018-04-26T23:37:44.905Z,96.15
2018-04-26T23:40:12.529Z,96.27
2018-04-26T23:42:40.140Z,95.66
2018-04-26T23:45:07.951Z,95.50
2018-04-26T23:47:35.715Z,95.57
2018-04-26T23:50:03.459Z,95.66
2018-04-26T23:52:31.151Z,95.62
2018-04-26T23:54:58.786Z,95.15
2018-04-26T23:57:26.588Z,95.88
2018-04-26T23:59:54.246Z,95.62
